sensor_id;sensor_type;location;lat;lon;timestamp;pressure;altitude;pressure_sealevel;temperature;humidity
19086;BME280;9675;51.538;6.728;2023-02-20T00:00:37;102281.06;;;8.04;100.00
19086;BME280;9675;51.538;6.728;2023-02-20T00:03:06;102281.44;;;7.99;100.00
19086;BME280;9675;51.538;6.728;2023-02-20T00:05:33;102285.28;;;8.04;100.00
19086;BME280;9675;51.538;6.728;2023-02-20T00:08:00;102282.63;;;8.02;100.00
19086;BME280;9675;51.538;6.728;2023-02-20T00:10:29;102278.25;;;8.01;100.00
19086;BME280;9675;51.538;6.728;2023-02-20T00:12:58;102276.22;;;7.97;100.00
19086;BME280;9675;51.538;6.728;2023-02-20T00:15:25;102262.34;;;7.95;100.00
19086;BME280;9675;51.538;6.728;2023-02-20T00:17:52;102259.78;;;7.95;100.00
19086;BME280;9675;51.538;6.728;2023-02-20T00:20:23;102260.56;;;7.94;100.00
19086;BME280;9675;51.538;6.728;2023-02-20T00:22:51;102261.31;;;7.93;100.00
19086;BME280;9675;51.538;6.728;2023-02-20T00:25:19;102257.84;;;7.93;100.00
19086;BME280;9675;51.538;6.728;2023-02-20T00:27:48;102257.22;;;7.85;100.00
19086;BME280;9675;51.538;6.728;2023-02-20T00:30:18;102251.97;;;7.74;100.00
19086;BME280;9675;51.538;6.728;2023-02-20T00:32:47;102253.78;;;7.75;100.00
19086;BME280;9675;51.538;6.728;2023-02-20T00:35:16;102256.88;;;7.71;100.00
19086;BME280;9675;51.538;6.728;2023-02-20T00:37:45;102257.38;;;7.77;100.00
19086;BME280;9675;51.538;6.728;2023-02-20T00:40:13;102242.09;;;7.68;100.00
19086;BME280;9675;51.538;6.728;2023-02-20T00:42:41;102242.38;;;7.71;100.00
19086;BME280;9675;51.538;6.728;2023-02-20T00:45:10;102239.03;;;7.62;100.00
19086;BME280;9675;51.538;6.728;2023-02-20T00:47:37;102222.66;;;7.60;100.00
19086;BME280;9675;51.538;6.728;2023-02-20T00:50:07;102231.09;;;7.69;100.00
19086;BME280;9675;51.538;6.728;2023-02-20T00:52:34;102225.34;;;7.72;100.00
19086;BME280;9675;51.538;6.728;2023-02-20T00:55:05;102227.91;;;7.72;100.00
19086;BME280;9675;51.538;6.728;2023-02-20T00:57:32;102205.22;;;7.66;100.00
19086;BME280;9675;51.538;6.728;2023-02-20T00:59:59;102204.44;;;7.47;100.00
19086;BME280;9675;51.538;6.728;2023-02-20T01:02:27;102207.00;;;7.57;100.00
19086;BME280;9675;51.538;6.728;2023-02-20T01:04:54;102188.03;;;7.55;100.00
19086;BME280;9675;51.538;6.728;2023-02-20T01:07:22;102175.75;;;7.51;100.00
19086;BME280;9675;51.538;6.728;2023-02-20T01:09:49;102185.34;;;7.53;100.00
19086;BME280;9675;51.538;6.728;2023-02-20T01:12:16;102184.44;;;7.53;100.00
19086;BME280;9675;51.538;6.728;2023-02-20T01:14:43;102173.28;;;7.52;100.00
19086;BME280;9675;51.538;6.728;2023-02-20T01:17:12;102172.41;;;7.52;100.00
19086;BME280;9675;51.538;6.728;2023-02-20T01:19:40;102172.16;;;7.49;100.00
19086;BME280;9675;51.538;6.728;2023-02-20T01:22:09;102169.47;;;7.47;100.00
19086;BME280;9675;51.538;6.728;2023-02-20T01:24:36;102177.81;;;7.45;100.00
19086;BME280;9675;51.538;6.728;2023-02-20T01:27:04;102187.16;;;7.44;100.00
19086;BME280;9675;51.538;6.728;2023-02-20T01:29:31;102183.69;;;7.44;100.00
19086;BME280;9675;51.538;6.728;2023-02-20T01:31:58;102193.19;;;7.45;100.00
19086;BME280;9675;51.538;6.728;2023-02-20T01:34:25;102190.72;;;7.46;100.00
19086;BME280;9675;51.538;6.728;2023-02-20T01:36:54;102191.38;;;7.44;100.00
19086;BME280;9675;51.538;6.728;2023-02-20T01:39:24;102187.91;;;7.43;100.00
19086;BME280;9675;51.538;6.728;2023-02-20T01:41:56;102187.78;;;7.42;100.00
19086;BME280;9675;51.538;6.728;2023-02-20T01:44:28;102178.56;;;7.44;100.00
19086;BME280;9675;51.538;6.728;2023-02-20T01:46:56;102179.31;;;7.43;100.00
19086;BME280;9675;51.538;6.728;2023-02-20T01:49:31;102175.34;;;7.46;100.00
19086;BME280;9675;51.538;6.728;2023-02-20T01:52:13;102156.53;;;7.46;100.00
19086;BME280;9675;51.538;6.728;2023-02-20T01:54:45;102163.19;;;7.44;100.00
19086;BME280;9675;51.538;6.728;2023-02-20T01:57:19;102164.72;;;7.42;100.00
19086;BME280;9675;51.538;6.728;2023-02-20T01:59:51;102168.06;;;7.41;100.00
19086;BME280;9675;51.538;6.728;2023-02-20T02:02:20;102159.22;;;7.37;100.00
19086;BME280;9675;51.538;6.728;2023-02-20T02:04:50;102148.72;;;7.34;100.00
19086;BME280;9675;51.538;6.728;2023-02-20T02:07:18;102140.53;;;7.28;100.00
19086;BME280;9675;51.538;6.728;2023-02-20T02:09:52;102147.31;;;7.28;100.00
19086;BME280;9675;51.538;6.728;2023-02-20T02:12:22;102131.56;;;7.23;100.00
19086;BME280;9675;51.538;6.728;2023-02-20T02:14:49;102132.31;;;7.22;100.00
19086;BME280;9675;51.538;6.728;2023-02-20T02:17:59;102112.22;;;7.16;100.00
19086;BME280;9675;51.538;6.728;2023-02-20T02:21:08;102112.72;;;7.22;100.00
19086;BME280;9675;51.538;6.728;2023-02-20T02:27:53;102086.50;;;7.15;100.00
19086;BME280;9675;51.538;6.728;2023-02-20T02:34:14;102084.03;;;7.16;100.00
19086;BME280;9675;51.538;6.728;2023-02-20T02:37:01;102085.84;;;7.17;100.00
19086;BME280;9675;51.538;6.728;2023-02-20T02:39:40;102084.81;;;7.15;100.00
19086;BME280;9675;51.538;6.728;2023-02-20T02:42:19;102088.78;;;7.12;100.00
19086;BME280;9675;51.538;6.728;2023-02-20T02:44:56;102079.06;;;7.08;100.00
19086;BME280;9675;51.538;6.728;2023-02-20T02:47:34;102080.72;;;7.07;100.00
19086;BME280;9675;51.538;6.728;2023-02-20T02:50:07;102075.47;;;7.06;100.00
19086;BME280;9675;51.538;6.728;2023-02-20T02:52:39;102078.16;;;7.07;100.00
19086;BME280;9675;51.538;6.728;2023-02-20T02:55:17;102076.13;;;7.03;100.00
19086;BME280;9675;51.538;6.728;2023-02-20T02:57:44;102067.41;;;7.01;100.00
19086;BME280;9675;51.538;6.728;2023-02-20T03:00:18;102067.16;;;6.98;100.00
19086;BME280;9675;51.538;6.728;2023-02-20T03:02:55;102047.97;;;6.93;100.00
19086;BME280;9675;51.538;6.728;2023-02-20T03:05:28;102046.16;;;6.92;100.00
19086;BME280;9675;51.538;6.728;2023-02-20T03:08:11;102040.16;;;6.92;100.00
19086;BME280;9675;51.538;6.728;2023-02-20T03:10:48;102040.16;;;6.92;100.00
19086;BME280;9675;51.538;6.728;2023-02-20T03:13:18;102031.44;;;6.90;100.00
19086;BME280;9675;51.538;6.728;2023-02-20T03:15:51;102039.91;;;6.89;100.00
19086;BME280;9675;51.538;6.728;2023-02-20T03:18:28;102046.41;;;6.85;100.00
19086;BME280;9675;51.538;6.728;2023-02-20T03:21:05;102043.84;;;6.85;100.00
19086;BME280;9675;51.538;6.728;2023-02-20T03:23:43;102043.75;;;6.83;100.00
19086;BME280;9675;51.538;6.728;2023-02-20T03:26:17;102043.59;;;6.82;100.00
19086;BME280;9675;51.538;6.728;2023-02-20T03:28:53;102037.44;;;6.80;100.00
19086;BME280;9675;51.538;6.728;2023-02-20T03:31:29;102034.28;;;6.82;100.00
19086;BME280;9675;51.538;6.728;2023-02-20T03:34:03;102039.25;;;6.81;100.00
19086;BME280;9675;51.538;6.728;2023-02-20T03:36:56;102029.78;;;6.80;100.00
19086;BME280;9675;51.538;6.728;2023-02-20T03:39:50;102035.56;;;6.77;100.00
19086;BME280;9675;51.538;6.728;2023-02-20T03:42:42;102033.75;;;6.76;100.00
19086;BME280;9675;51.538;6.728;2023-02-20T03:45:31;102041.28;;;6.75;100.00
19086;BME280;9675;51.538;6.728;2023-02-20T03:48:06;102033.50;;;6.73;100.00
19086;BME280;9675;51.538;6.728;2023-02-20T03:50:34;102042.06;;;6.74;100.00
19086;BME280;9675;51.538;6.728;2023-02-20T03:53:02;102039.25;;;6.71;100.00
19086;BME280;9675;51.538;6.728;2023-02-20T03:55:30;102046.94;;;6.71;100.00
19086;BME280;9675;51.538;6.728;2023-02-20T03:58:02;102042.19;;;6.55;100.00
19086;BME280;9675;51.538;6.728;2023-02-20T04:00:35;102036.56;;;6.69;100.00
19086;BME280;9675;51.538;6.728;2023-02-20T04:03:11;102033.09;;;6.69;100.00
19086;BME280;9675;51.538;6.728;2023-02-20T04:05:44;102037.97;;;6.56;100.00
19086;BME280;9675;51.538;6.728;2023-02-20T04:08:17;102031.19;;;6.66;100.00
19086;BME280;9675;51.538;6.728;2023-02-20T04:10:53;102026.97;;;6.67;100.00
19086;BME280;9675;51.538;6.728;2023-02-20T04:13:24;102024.94;;;6.63;100.00
19086;BME280;9675;51.538;6.728;2023-02-20T04:15:53;102029.53;;;6.67;100.00
19086;BME280;9675;51.538;6.728;2023-02-20T04:18:22;102036.03;;;6.63;100.00
19086;BME280;9675;51.538;6.728;2023-02-20T04:20:54;102038.47;;;6.52;100.00
19086;BME280;9675;51.538;6.728;2023-02-20T04:23:24;102030.81;;;6.52;100.00
19086;BME280;9675;51.538;6.728;2023-02-20T04:25:58;102041.28;;;6.45;100.00
19086;BME280;9675;51.538;6.728;2023-02-20T04:28:28;102040.28;;;6.53;100.00
19086;BME280;9675;51.538;6.728;2023-02-20T04:30:56;102034.63;;;6.36;100.00
19086;BME280;9675;51.538;6.728;2023-02-20T04:33:23;102044.34;;;6.51;100.00
19086;BME280;9675;51.538;6.728;2023-02-20T04:35:50;102041.03;;;6.52;100.00
19086;BME280;9675;51.538;6.728;2023-02-20T04:38:19;102045.41;;;6.53;100.00
19086;BME280;9675;51.538;6.728;2023-02-20T04:40:46;102046.91;;;6.40;100.00
19086;BME280;9675;51.538;6.728;2023-02-20T04:43:14;102045.50;;;6.44;100.00
19086;BME280;9675;51.538;6.728;2023-02-20T04:45:42;102044.34;;;6.40;100.00
19086;BME280;9675;51.538;6.728;2023-02-20T04:48:09;102042.78;;;6.32;100.00
19086;BME280;9675;51.538;6.728;2023-02-20T04:50:36;102036.03;;;6.43;100.00
19086;BME280;9675;51.538;6.728;2023-02-20T04:53:03;102038.56;;;6.43;100.00
19086;BME280;9675;51.538;6.728;2023-02-20T04:55:30;102037.97;;;6.46;100.00
19086;BME280;9675;51.538;6.728;2023-02-20T04:57:57;102029.13;;;6.42;100.00
19086;BME280;9675;51.538;6.728;2023-02-20T05:00:26;102020.06;;;6.46;100.00
19086;BME280;9675;51.538;6.728;2023-02-20T05:02:54;102013.41;;;6.48;100.00
19086;BME280;9675;51.538;6.728;2023-02-20T05:05:24;102024.41;;;6.47;100.00
19086;BME280;9675;51.538;6.728;2023-02-20T05:07:54;102032.06;;;6.36;100.00
19086;BME280;9675;51.538;6.728;2023-02-20T05:10:24;102021.44;;;6.32;100.00
19086;BME280;9675;51.538;6.728;2023-02-20T05:12:52;102015.69;;;6.45;100.00
19086;BME280;9675;51.538;6.728;2023-02-20T05:15:20;102018.63;;;6.39;100.00
19086;BME280;9675;51.538;6.728;2023-02-20T05:17:49;102020.66;;;6.43;100.00
19086;BME280;9675;51.538;6.728;2023-02-20T05:20:18;102029.25;;;6.44;100.00
19086;BME280;9675;51.538;6.728;2023-02-20T05:22:45;102015.69;;;6.45;100.00
19086;BME280;9675;51.538;6.728;2023-02-20T05:25:12;102018.53;;;6.48;100.00
19086;BME280;9675;51.538;6.728;2023-02-20T05:27:40;102012.50;;;6.47;100.00
19086;BME280;9675;51.538;6.728;2023-02-20T05:30:09;102010.97;;;6.49;100.00
19086;BME280;9675;51.538;6.728;2023-02-20T05:32:36;102007.50;;;6.49;100.00
19086;BME280;9675;51.538;6.728;2023-02-20T05:35:05;102002.53;;;6.50;100.00
19086;BME280;9675;51.538;6.728;2023-02-20T05:37:32;102010.84;;;6.48;100.00
19086;BME280;9675;51.538;6.728;2023-02-20T05:39:59;102007.25;;;6.46;100.00
19086;BME280;9675;51.538;6.728;2023-02-20T05:42:27;102009.81;;;6.46;100.00
19086;BME280;9675;51.538;6.728;2023-02-20T05:44:53;102010.72;;;6.46;100.00
19086;BME280;9675;51.538;6.728;2023-02-20T05:47:20;101999.72;;;6.47;100.00
19086;BME280;9675;51.538;6.728;2023-02-20T05:49:47;101992.16;;;6.49;100.00
19086;BME280;9675;51.538;6.728;2023-02-20T05:52:16;101993.06;;;6.49;100.00
19086;BME280;9675;51.538;6.728;2023-02-20T05:54:45;101989.59;;;6.49;100.00
19086;BME280;9675;51.538;6.728;2023-02-20T05:57:14;101999.06;;;6.50;100.00
19086;BME280;9675;51.538;6.728;2023-02-20T05:59:41;102001.63;;;6.50;100.00
19086;BME280;9675;51.538;6.728;2023-02-20T06:02:08;101997.41;;;6.50;100.00
19086;BME280;9675;51.538;6.728;2023-02-20T06:04:35;101998.81;;;6.47;100.00
19086;BME280;9675;51.538;6.728;2023-02-20T06:07:02;101993.94;;;6.50;100.00
19086;BME280;9675;51.538;6.728;2023-02-20T06:09:30;102004.19;;;6.50;100.00
19086;BME280;9675;51.538;6.728;2023-02-20T06:11:58;102014.41;;;6.50;100.00
19086;BME280;9675;51.538;6.728;2023-02-20T06:14:26;102018.00;;;6.52;100.00
19086;BME280;9675;51.538;6.728;2023-02-20T06:16:55;102012.13;;;6.53;100.00
19086;BME280;9675;51.538;6.728;2023-02-20T06:19:23;102022.38;;;6.53;100.00
19086;BME280;9675;51.538;6.728;2023-02-20T06:21:52;102027.59;;;6.54;100.00
19086;BME280;9675;51.538;6.728;2023-02-20T06:24:20;102028.34;;;6.53;100.00
19086;BME280;9675;51.538;6.728;2023-02-20T06:26:49;102034.38;;;6.54;100.00
19086;BME280;9675;51.538;6.728;2023-02-20T06:29:17;102030.03;;;6.53;100.00
19086;BME280;9675;51.538;6.728;2023-02-20T06:31:44;102041.28;;;6.55;100.00
19086;BME280;9675;51.538;6.728;2023-02-20T06:34:12;102041.28;;;6.55;100.00
19086;BME280;9675;51.538;6.728;2023-02-20T06:36:41;102039.38;;;6.52;100.00
19086;BME280;9675;51.538;6.728;2023-02-20T06:39:12;102034.38;;;6.54;100.00
19086;BME280;9675;51.538;6.728;2023-02-20T06:41:40;102026.84;;;6.55;100.00
19086;BME280;9675;51.538;6.728;2023-02-20T06:44:08;102027.72;;;6.56;100.00
19086;BME280;9675;51.538;6.728;2023-02-20T06:46:35;102041.28;;;6.55;100.00
19086;BME280;9675;51.538;6.728;2023-02-20T06:49:02;102037.72;;;6.53;100.00
19086;BME280;9675;51.538;6.728;2023-02-20T06:51:32;102035.28;;;6.54;100.00
19086;BME280;9675;51.538;6.728;2023-02-20T06:54:01;102025.94;;;6.55;100.00
19086;BME280;9675;51.538;6.728;2023-02-20T06:56:32;102022.63;;;6.56;100.00
19086;BME280;9675;51.538;6.728;2023-02-20T06:59:00;102027.72;;;6.56;100.00
19086;BME280;9675;51.538;6.728;2023-02-20T07:01:36;102022.63;;;6.56;100.00
19086;BME280;9675;51.538;6.728;2023-02-20T07:04:05;102026.06;;;6.56;100.00
19086;BME280;9675;51.538;6.728;2023-02-20T07:06:32;102027.88;;;6.57;100.00
19086;BME280;9675;51.538;6.728;2023-02-20T07:08:59;102033.88;;;6.58;100.00
19086;BME280;9675;51.538;6.728;2023-02-20T07:11:26;102038.22;;;6.59;100.00
19086;BME280;9675;51.538;6.728;2023-02-20T07:13:53;102037.31;;;6.58;100.00
19086;BME280;9675;51.538;6.728;2023-02-20T07:16:22;102033.09;;;6.59;100.00
19086;BME280;9675;51.538;6.728;2023-02-20T07:18:50;102035.78;;;6.60;100.00
19086;BME280;9675;51.538;6.728;2023-02-20T07:21:17;102029.78;;;6.60;100.00
19086;BME280;9675;51.538;6.728;2023-02-20T07:23:44;102028.13;;;6.60;100.00
19086;BME280;9675;51.538;6.728;2023-02-20T07:26:18;102034.00;;;6.59;100.00
19086;BME280;9675;51.538;6.728;2023-02-20T07:28:45;102025.41;;;6.59;100.00
19086;BME280;9675;51.538;6.728;2023-02-20T07:31:12;102028.13;;;6.60;100.00
19086;BME280;9675;51.538;6.728;2023-02-20T07:33:39;102034.28;;;6.62;100.00
19086;BME280;9675;51.538;6.728;2023-02-20T07:36:09;102024.94;;;6.63;100.00
19086;BME280;9675;51.538;6.728;2023-02-20T07:38:37;102031.94;;;6.65;100.00
19086;BME280;9675;51.538;6.728;2023-02-20T07:41:04;102033.91;;;6.68;100.00
19086;BME280;9675;51.538;6.728;2023-02-20T07:43:32;102027.88;;;6.67;100.00
19086;BME280;9675;51.538;6.728;2023-02-20T07:45:59;102033.00;;;6.67;100.00
19086;BME280;9675;51.538;6.728;2023-02-20T07:48:26;102024.41;;;6.67;100.00
19086;BME280;9675;51.538;6.728;2023-02-20T07:50:53;102029.63;;;6.68;100.00
19086;BME280;9675;51.538;6.728;2023-02-20T07:53:22;102025.41;;;6.69;100.00
19086;BME280;9675;51.538;6.728;2023-02-20T07:55:49;102030.69;;;6.70;100.00
19086;BME280;9675;51.538;6.728;2023-02-20T07:58:15;102037.44;;;6.70;100.00
19086;BME280;9675;51.538;6.728;2023-02-20T08:00:42;102030.81;;;6.72;100.00
19086;BME280;9675;51.538;6.728;2023-02-20T08:03:09;102029.16;;;6.72;100.00
19086;BME280;9675;51.538;6.728;2023-02-20T08:05:36;102022.38;;;6.73;100.00
19086;BME280;9675;51.538;6.728;2023-02-20T08:08:04;102020.81;;;6.75;100.00
19086;BME280;9675;51.538;6.728;2023-02-20T08:10:32;102020.97;;;6.76;100.00
19086;BME280;9675;51.538;6.728;2023-02-20T08:13:00;102021.09;;;6.78;100.00
19086;BME280;9675;51.538;6.728;2023-02-20T08:15:28;102023.75;;;6.79;100.00
19086;BME280;9675;51.538;6.728;2023-02-20T08:17:56;102024.66;;;6.80;100.00
19086;BME280;9675;51.538;6.728;2023-02-20T08:20:25;102036.69;;;6.81;100.00
19086;BME280;9675;51.538;6.728;2023-02-20T08:22:52;102030.81;;;6.82;100.00
19086;BME280;9675;51.538;6.728;2023-02-20T08:25:20;102030.94;;;6.83;100.00
19086;BME280;9675;51.538;6.728;2023-02-20T08:27:48;102038.72;;;6.85;100.00
19086;BME280;9675;51.538;6.728;2023-02-20T08:30:22;102033.63;;;6.85;100.00
19086;BME280;9675;51.538;6.728;2023-02-20T08:32:49;102023.38;;;6.85;100.00
19086;BME280;9675;51.538;6.728;2023-02-20T08:35:18;102020.06;;;6.86;100.00
19086;BME280;9675;51.538;6.728;2023-02-20T08:37:49;102023.66;;;6.88;100.00
19086;BME280;9675;51.538;6.728;2023-02-20T08:40:16;102018.53;;;6.88;100.00
19086;BME280;9675;51.538;6.728;2023-02-20T08:42:43;102010.03;;;6.89;100.00
19086;BME280;9675;51.538;6.728;2023-02-20T08:45:13;102015.44;;;6.92;100.00
19086;BME280;9675;51.538;6.728;2023-02-20T08:47:41;102013.66;;;6.91;100.00
19086;BME280;9675;51.538;6.728;2023-02-20T08:50:08;102017.25;;;6.93;100.00
19086;BME280;9675;51.538;6.728;2023-02-20T08:52:35;102018.13;;;6.94;100.00
19086;BME280;9675;51.538;6.728;2023-02-20T08:55:03;102015.69;;;6.85;100.00
19086;BME280;9675;51.538;6.728;2023-02-20T08:57:30;102008.53;;;6.91;100.00
19086;BME280;9675;51.538;6.728;2023-02-20T08:59:57;102021.47;;;6.93;100.00
19086;BME280;9675;51.538;6.728;2023-02-20T09:02:25;102011.47;;;6.96;100.00
19086;BME280;9675;51.538;6.728;2023-02-20T09:04:54;102020.31;;;6.99;100.00
19086;BME280;9675;51.538;6.728;2023-02-20T09:07:22;102010.84;;;6.98;100.00
19086;BME280;9675;51.538;6.728;2023-02-20T09:09:52;102014.41;;;7.00;100.00
19086;BME280;9675;51.538;6.728;2023-02-20T09:12:20;102015.44;;;7.02;100.00
19086;BME280;9675;51.538;6.728;2023-02-20T09:14:47;102018.22;;;7.05;100.00
19086;BME280;9675;51.538;6.728;2023-02-20T09:17:14;102011.44;;;7.06;100.00
19086;BME280;9675;51.538;6.728;2023-02-20T09:19:43;102020.03;;;7.06;100.00
19086;BME280;9675;51.538;6.728;2023-02-20T09:22:10;102016.69;;;7.07;100.00
19086;BME280;9675;51.538;6.728;2023-02-20T09:24:37;102016.84;;;7.09;100.00
19086;BME280;9675;51.538;6.728;2023-02-20T09:27:06;102007.59;;;7.11;100.00
19086;BME280;9675;51.538;6.728;2023-02-20T09:29:34;102005.16;;;7.12;100.00
19086;BME280;9675;51.538;6.728;2023-02-20T09:32:05;102006.19;;;7.14;100.00
19086;BME280;9675;51.538;6.728;2023-02-20T09:34:32;102006.19;;;7.14;100.00
19086;BME280;9675;51.538;6.728;2023-02-20T09:37:01;102007.19;;;7.16;100.00
19086;BME280;9675;51.538;6.728;2023-02-20T09:39:29;101996.94;;;7.16;100.00
19086;BME280;9675;51.538;6.728;2023-02-20T09:42:11;101998.75;;;7.17;100.00
19086;BME280;9675;51.538;6.728;2023-02-20T09:44:58;102003.25;;;7.20;100.00
19086;BME280;9675;51.538;6.728;2023-02-20T09:47:44;101998.88;;;7.19;100.00
19086;BME280;9675;51.538;6.728;2023-02-20T09:50:21;101993.88;;;7.20;100.00
19086;BME280;9675;51.538;6.728;2023-02-20T09:53:01;101999.00;;;7.20;100.00
19086;BME280;9675;51.538;6.728;2023-02-20T09:55:35;101991.31;;;7.20;100.00
19086;BME280;9675;51.538;6.728;2023-02-20T09:58:06;101987.22;;;7.22;100.00
19086;BME280;9675;51.538;6.728;2023-02-20T10:00:38;101990.91;;;7.26;100.00
19086;BME280;9675;51.538;6.728;2023-02-20T10:03:20;101992.84;;;7.29;100.00
19086;BME280;9675;51.538;6.728;2023-02-20T10:05:47;101988.63;;;7.29;100.00
19086;BME280;9675;51.538;6.728;2023-02-20T10:08:20;101992.16;;;7.31;100.00
19086;BME280;9675;51.538;6.728;2023-02-20T10:10:50;101983.13;;;7.24;100.00
19086;BME280;9675;51.538;6.728;2023-02-20T10:13:44;101995.13;;;7.36;100.00
19086;BME280;9675;51.538;6.728;2023-02-20T10:16:27;101990.25;;;7.39;100.00
19086;BME280;9675;51.538;6.728;2023-02-20T10:19:13;101979.31;;;7.41;100.00
19086;BME280;9675;51.538;6.728;2023-02-20T10:21:56;101987.16;;;7.43;100.00
19086;BME280;9675;51.538;6.728;2023-02-20T10:24:48;101996.63;;;7.44;100.00
19086;BME280;9675;51.538;6.728;2023-02-20T10:27:30;101995.19;;;7.47;100.00
19086;BME280;9675;51.538;6.728;2023-02-20T10:30:00;101982.50;;;7.49;100.00
19086;BME280;9675;51.538;6.728;2023-02-20T10:32:40;101983.53;;;7.51;100.00
19086;BME280;9675;51.538;6.728;2023-02-20T10:35:13;101974.28;;;7.53;100.00
19086;BME280;9675;51.538;6.728;2023-02-20T10:37:47;101996.59;;;7.54;100.00
19086;BME280;9675;51.538;6.728;2023-02-20T10:40:26;101985.81;;;7.58;100.00
19086;BME280;9675;51.538;6.728;2023-02-20T10:43:04;101980.94;;;7.61;100.00
19086;BME280;9675;51.538;6.728;2023-02-20T10:45:50;101975.81;;;7.61;100.00
19086;BME280;9675;51.538;6.728;2023-02-20T10:48:19;101965.66;;;7.62;100.00
19086;BME280;9675;51.538;6.728;2023-02-20T10:50:54;101971.16;;;7.67;100.00
19086;BME280;9675;51.538;6.728;2023-02-20T10:53:36;101963.47;;;7.67;100.00
19086;BME280;9675;51.538;6.728;2023-02-20T10:56:12;101965.38;;;7.69;100.00
19086;BME280;9675;51.538;6.728;2023-02-20T10:58:45;101951.91;;;7.72;100.00
19086;BME280;9675;51.538;6.728;2023-02-20T11:01:20;101950.34;;;7.74;100.00
19086;BME280;9675;51.538;6.728;2023-02-20T11:03:53;101948.81;;;7.76;100.00
19086;BME280;9675;51.538;6.728;2023-02-20T11:06:30;101960.19;;;7.80;100.00
19086;BME280;9675;51.538;6.728;2023-02-20T11:08:59;101968.03;;;7.81;100.00
19086;BME280;9675;51.538;6.728;2023-02-20T11:11:32;101967.25;;;7.82;100.00
19086;BME280;9675;51.538;6.728;2023-02-20T11:14:12;101972.59;;;7.85;100.00
19086;BME280;9675;51.538;6.728;2023-02-20T11:16:46;101977.72;;;7.85;100.00
19086;BME280;9675;51.538;6.728;2023-02-20T11:19:22;101972.84;;;7.88;100.00
19086;BME280;9675;51.538;6.728;2023-02-20T11:21:51;101964.25;;;7.88;100.00
19086;BME280;9675;51.538;6.728;2023-02-20T11:24:33;101958.47;;;7.90;100.00
19086;BME280;9675;51.538;6.728;2023-02-20T11:27:08;101965.41;;;7.91;100.00
19086;BME280;9675;51.538;6.728;2023-02-20T11:30:00;101960.50;;;7.94;100.00
19086;BME280;9675;51.538;6.728;2023-02-20T11:32:33;101969.97;;;7.95;100.00
19086;BME280;9675;51.538;6.728;2023-02-20T11:35:21;101967.63;;;7.98;100.00
19086;BME280;9675;51.538;6.728;2023-02-20T11:38:18;101950.72;;;8.00;100.00
19086;BME280;9675;51.538;6.728;2023-02-20T11:41:00;101952.50;;;8.01;100.00
19086;BME280;9675;51.538;6.728;2023-02-20T11:43:32;101974.81;;;8.02;100.00
19086;BME280;9675;51.538;6.728;2023-02-20T11:46:09;101964.78;;;8.05;100.00
19086;BME280;9675;51.538;6.728;2023-02-20T11:48:59;101971.59;;;8.05;100.00
19086;BME280;9675;51.538;6.728;2023-02-20T11:51:37;101982.13;;;7.98;100.00
19086;BME280;9675;51.538;6.728;2023-02-20T11:54:13;101976.84;;;8.06;100.00
19086;BME280;9675;51.538;6.728;2023-02-20T11:57:00;101973.50;;;8.07;100.00
19086;BME280;9675;51.538;6.728;2023-02-20T11:59:35;101978.63;;;8.07;100.00
19086;BME280;9675;51.538;6.728;2023-02-20T12:02:21;101976.31;;;8.10;100.00
19086;BME280;9675;51.538;6.728;2023-02-20T12:05:09;101952.56;;;8.13;100.00
19086;BME280;9675;51.538;6.728;2023-02-20T12:07:43;101944.97;;;8.15;100.00
19086;BME280;9675;51.538;6.728;2023-02-20T12:10:28;101964.72;;;8.16;100.00
19086;BME280;9675;51.538;6.728;2023-02-20T12:12:57;101967.50;;;8.19;100.00
19086;BME280;9675;51.538;6.728;2023-02-20T12:15:28;101941.41;;;8.13;100.00
19086;BME280;9675;51.538;6.728;2023-02-20T12:18:44;101933.28;;;8.18;100.00
19086;BME280;9675;51.538;6.728;2023-02-20T12:21:24;101933.50;;;8.21;100.00
19086;BME280;9675;51.538;6.728;2023-02-20T12:24:12;101943.00;;;8.22;100.00
19086;BME280;9675;51.538;6.728;2023-02-20T12:26:53;101927.81;;;8.25;100.00
19086;BME280;9675;51.538;6.728;2023-02-20T12:29:39;101907.22;;;8.24;100.00
19086;BME280;9675;51.538;6.728;2023-02-20T12:32:29;101902.94;;;8.24;100.00
19086;BME280;9675;51.538;6.728;2023-02-20T12:35:21;101907.31;;;8.25;100.00
19086;BME280;9675;51.538;6.728;2023-02-20T12:38:11;101901.28;;;8.25;100.00
19086;BME280;9675;51.538;6.728;2023-02-20T12:41:04;101891.13;;;8.26;100.00
19086;BME280;9675;51.538;6.728;2023-02-20T12:43:45;101911.03;;;8.29;100.00
19086;BME280;9675;51.538;6.728;2023-02-20T12:46:20;101898.19;;;8.29;100.00
19086;BME280;9675;51.538;6.728;2023-02-20T12:49:16;101883.66;;;8.29;100.00
19086;BME280;9675;51.538;6.728;2023-02-20T12:51:56;101855.59;;;8.31;100.00
19086;BME280;9675;51.538;6.728;2023-02-20T12:54:36;101852.25;;;8.32;100.00
19086;BME280;9675;51.538;6.728;2023-02-20T12:57:18;101852.25;;;8.32;100.00
19086;BME280;9675;51.538;6.728;2023-02-20T12:59:56;101859.19;;;8.33;100.00
19086;BME280;9675;51.538;6.728;2023-02-20T13:02:32;101858.50;;;8.35;100.00
19086;BME280;9675;51.538;6.728;2023-02-20T13:05:06;101841.31;;;8.34;100.00
19086;BME280;9675;51.538;6.728;2023-02-20T13:07:39;101859.50;;;8.37;100.00
19086;BME280;9675;51.538;6.728;2023-02-20T13:10:16;101866.31;;;8.37;100.00
19086;BME280;9675;51.538;6.728;2023-02-20T13:12:47;101870.69;;;8.38;100.00
19086;BME280;9675;51.538;6.728;2023-02-20T13:15:30;101868.19;;;8.39;100.00
19086;BME280;9675;51.538;6.728;2023-02-20T13:18:06;101853.69;;;8.40;100.00
19086;BME280;9675;51.538;6.728;2023-02-20T13:20:43;101863.31;;;8.42;100.00
19086;BME280;9675;51.538;6.728;2023-02-20T13:23:34;101860.97;;;8.45;100.00
19086;BME280;9675;51.538;6.728;2023-02-20T13:29:14;101872.13;;;8.46;100.00
19086;BME280;9675;51.538;6.728;2023-02-20T13:31:46;101874.59;;;8.44;100.00
19086;BME280;9675;51.538;6.728;2023-02-20T13:34:35;101878.94;;;8.45;100.00
19086;BME280;9675;51.538;6.728;2023-02-20T13:37:54;101866.09;;;8.45;100.00
19086;BME280;9675;51.538;6.728;2023-02-20T13:40:41;101865.44;;;8.48;100.00